createdAt,value
2019-05-15T00:00:32.598Z,10.95
2019-05-15T00:01:29.564Z,10.95
2019-05-15T00:02:29.531Z,10.97
2019-05-15T00:03:29.498Z,11.00
2019-05-15T00:04:29.471Z,10.86
2019-05-15T00:05:29.437Z,10.95
2019-05-15T00:06:29.463Z,10.95
2019-05-15T00:07:29.589Z,10.95
2019-05-15T00:08:29.335Z,10.91
2019-05-15T00:09:29.319Z,10.95
2019-05-15T00:10:29.355Z,11.01
2019-05-15T00:11:31.193Z,11.01
2019-05-15T00:12:31.196Z,10.93
2019-05-15T00:13:29.177Z,10.95
2019-05-15T00:14:29.148Z,11.05
2019-05-15T00:15:29.117Z,10.97
2019-05-15T00:16:29.218Z,10.94
2019-05-15T00:17:29.051Z,10.90
2019-05-15T00:18:29.103Z,11.03
2019-05-15T00:19:28.983Z,11.03
2019-05-15T00:20:29.439Z,11.03
2019-05-15T00:21:29.008Z,11.00
2019-05-15T00:22:29.244Z,11.04
2019-05-15T00:23:29.255Z,10.98
2019-05-15T00:24:28.962Z,11.03
2019-05-15T00:25:28.801Z,10.85
2019-05-15T00:26:31.705Z,10.98
2019-05-15T00:27:28.740Z,10.98
2019-05-15T00:28:28.694Z,10.91
2019-05-15T00:29:29.001Z,10.91
2019-05-15T00:30:28.989Z,10.94
2019-05-15T00:31:29.132Z,10.85
2019-05-15T00:32:28.566Z,10.72
2019-05-15T00:33:28.743Z,10.78
2019-05-15T00:34:28.665Z,10.94
2019-05-15T00:35:30.627Z,10.82
2019-05-15T00:36:28.701Z,10.82
2019-05-15T00:37:28.891Z,10.95
2019-05-15T00:38:28.367Z,10.91
2019-05-15T00:39:28.525Z,10.83
2019-05-15T00:40:28.868Z,10.73
2019-05-15T00:41:28.302Z,10.82
2019-05-15T00:42:28.492Z,10.87
2019-05-15T00:43:29.120Z,10.87
2019-05-15T00:44:28.167Z,10.82
2019-05-15T00:45:28.135Z,10.79
2019-05-15T00:46:29.056Z,10.80
2019-05-15T00:47:28.694Z,10.83
2019-05-15T00:48:29.209Z,10.91
2019-05-15T00:49:28.959Z,10.91
2019-05-15T00:50:28.728Z,10.72
2019-05-15T00:51:28.483Z,10.75
2019-05-15T00:52:28.290Z,10.73
2019-05-15T00:53:28.397Z,10.64
2019-05-15T00:54:28.247Z,10.62
2019-05-15T00:55:28.459Z,10.60
2019-05-15T00:56:28.442Z,10.61
2019-05-15T00:57:28.338Z,10.54
2019-05-15T00:58:28.384Z,10.57
2019-05-15T00:59:30.056Z,10.65
2019-05-15T01:00:28.202Z,10.61
2019-05-15T01:01:28.706Z,10.65
2019-05-15T01:02:28.666Z,10.57
2019-05-15T01:03:27.896Z,10.64
2019-05-15T01:04:28.048Z,10.60
2019-05-15T01:05:28.014Z,10.43
2019-05-15T01:06:28.415Z,10.30
2019-05-15T01:07:28.153Z,10.28
2019-05-15T01:08:28.490Z,10.30
2019-05-15T01:09:29.212Z,10.30
2019-05-15T01:10:28.713Z,10.28
2019-05-15T01:11:28.485Z,10.20
2019-05-15T01:12:29.140Z,10.24
2019-05-15T01:13:28.189Z,10.16
2019-05-15T01:14:27.867Z,10.14
2019-05-15T01:15:29.037Z,10.23
2019-05-15T01:16:28.102Z,10.16
2019-05-15T01:17:29.018Z,10.24
2019-05-15T01:18:29.107Z,10.23
2019-05-15T01:19:28.706Z,10.16
2019-05-15T01:20:28.559Z,10.27
2019-05-15T01:21:27.929Z,10.23
2019-05-15T01:22:28.628Z,10.20
2019-05-15T01:23:28.253Z,10.18
2019-05-15T01:24:28.313Z,10.21
2019-05-15T01:25:28.031Z,10.27
2019-05-15T01:26:28.202Z,10.31
2019-05-15T01:27:29.019Z,10.27
2019-05-15T01:28:28.746Z,10.16
2019-05-15T01:29:38.418Z,10.09
2019-05-15T01:30:28.576Z,10.01
2019-05-15T01:31:28.580Z,9.99
2019-05-15T01:32:28.409Z,10.01
2019-05-15T01:33:28.292Z,10.02
2019-05-15T01:34:29.245Z,10.05
2019-05-15T01:35:28.568Z,10.03
2019-05-15T01:36:28.681Z,9.98
2019-05-15T01:37:28.182Z,10.08
2019-05-15T01:38:28.037Z,10.09
2019-05-15T01:39:26.392Z,9.90
2019-05-15T01:40:28.750Z,9.90
2019-05-15T01:41:28.203Z,9.80
2019-05-15T01:42:28.020Z,9.80
2019-05-15T01:43:28.923Z,9.67
2019-05-15T01:44:28.553Z,9.84
2019-05-15T01:45:28.442Z,9.88
2019-05-15T01:46:28.381Z,9.93
2019-05-15T01:47:28.090Z,9.90
2019-05-15T01:48:28.161Z,9.83
2019-05-15T01:49:27.931Z,9.84
2019-05-15T01:50:26.012Z,9.78
2019-05-15T01:51:28.400Z,9.88
2019-05-15T01:52:27.959Z,9.81
2019-05-15T01:53:25.914Z,9.85
2019-05-15T01:54:25.875Z,9.83
2019-05-15T01:55:28.257Z,9.77
2019-05-15T01:56:25.846Z,9.73
2019-05-15T01:57:25.779Z,9.81
2019-05-15T01:58:25.763Z,9.80
2019-05-15T01:59:25.714Z,9.91
2019-05-15T02:00:27.849Z,9.87
2019-05-15T02:01:28.186Z,9.91
2019-05-15T02:02:27.917Z,9.98
2019-05-15T02:03:25.600Z,9.94
2019-05-15T02:04:25.606Z,9.93
2019-05-15T02:05:25.518Z,10.01
2019-05-15T02:06:25.486Z,9.87
2019-05-15T02:07:25.452Z,9.87
2019-05-15T02:08:25.433Z,9.90
2019-05-15T02:09:27.913Z,9.84
2019-05-15T02:10:25.360Z,9.70
2019-05-15T02:11:25.324Z,9.84
2019-05-15T02:12:25.293Z,9.67
2019-05-15T02:13:25.254Z,9.63
2019-05-15T02:14:25.293Z,9.60
2019-05-15T02:15:25.195Z,9.62
2019-05-15T02:16:25.169Z,9.59
2019-05-15T02:17:25.124Z,9.73
2019-05-15T02:18:25.103Z,9.84
2019-05-15T02:19:25.053Z,9.73
2019-05-15T02:20:25.029Z,9.70
2019-05-15T02:21:24.994Z,9.78
2019-05-15T02:22:25.031Z,9.67
2019-05-15T02:23:24.929Z,9.69
2019-05-15T02:24:24.894Z,9.77
2019-05-15T02:25:24.862Z,9.84
2019-05-15T02:26:24.838Z,9.63
2019-05-15T02:27:24.790Z,9.54
2019-05-15T02:28:24.770Z,9.44
2019-05-15T02:29:25.284Z,9.52
2019-05-15T02:30:28.821Z,9.45
2019-05-15T02:31:24.666Z,9.60
2019-05-15T02:32:24.628Z,9.48
2019-05-15T02:33:24.591Z,9.54
2019-05-15T02:34:24.597Z,9.65
2019-05-15T02:35:24.545Z,9.62
2019-05-15T02:36:24.499Z,9.72
2019-05-15T02:37:24.465Z,9.65
2019-05-15T02:38:24.523Z,9.62
2019-05-15T02:39:24.417Z,9.42
2019-05-15T02:40:24.375Z,9.48
2019-05-15T02:41:24.334Z,9.37
2019-05-15T02:42:24.353Z,9.41
2019-05-15T02:43:24.268Z,9.44
2019-05-15T02:44:24.238Z,9.50
2019-05-15T02:45:24.198Z,9.45
2019-05-15T02:46:24.198Z,9.45
2019-05-15T02:47:24.129Z,9.51
2019-05-15T02:48:24.107Z,9.44
2019-05-15T02:49:24.071Z,9.40
2019-05-15T02:50:24.046Z,9.29
2019-05-15T02:51:24.068Z,9.42
2019-05-15T02:52:23.973Z,9.27
2019-05-15T02:53:23.953Z,9.34
2019-05-15T02:54:23.906Z,9.42
2019-05-15T02:55:23.968Z,9.32
2019-05-15T02:56:23.832Z,9.36
2019-05-15T02:57:23.806Z,9.30
2019-05-15T02:58:23.846Z,9.27
2019-05-15T02:59:23.738Z,9.32
2019-05-15T03:00:37.797Z,9.26
2019-05-15T03:01:23.681Z,9.30
2019-05-15T03:02:23.773Z,9.30
2019-05-15T03:03:23.701Z,9.30
2019-05-15T03:04:23.575Z,9.32
2019-05-15T03:05:23.533Z,9.26
2019-05-15T03:06:23.506Z,9.24
2019-05-15T03:07:23.502Z,9.40
2019-05-15T03:08:23.439Z,9.36
2019-05-15T03:09:23.435Z,9.30
2019-05-15T03:10:23.375Z,9.34
2019-05-15T03:11:23.340Z,9.41
2019-05-15T03:12:23.341Z,9.41
2019-05-15T03:13:23.276Z,9.40
2019-05-15T03:14:23.236Z,9.29
2019-05-15T03:15:23.203Z,9.33
2019-05-15T03:16:23.177Z,9.23
2019-05-15T03:17:23.180Z,9.11
2019-05-15T03:18:23.108Z,9.03
2019-05-15T03:19:23.085Z,9.03
2019-05-15T03:20:23.049Z,8.90
2019-05-15T03:21:23.011Z,8.98
2019-05-15T03:22:23.045Z,8.96
2019-05-15T03:23:22.944Z,8.92
2019-05-15T03:24:22.907Z,8.99
2019-05-15T03:25:22.875Z,9.03
2019-05-15T03:26:22.841Z,9.03
2019-05-15T03:27:22.881Z,9.01
2019-05-15T03:28:22.771Z,9.01
2019-05-15T03:29:22.738Z,9.04
2019-05-15T03:30:22.710Z,8.99
2019-05-15T03:31:40.821Z,8.96
2019-05-15T03:32:32.897Z,8.95
2019-05-15T03:33:28.219Z,8.86
2019-05-15T03:34:28.835Z,8.80
2019-05-15T03:35:23.478Z,8.80
2019-05-15T03:36:24.082Z,8.86
2019-05-15T03:37:22.910Z,8.81
2019-05-15T03:38:22.449Z,8.75
2019-05-15T03:39:22.405Z,8.71
2019-05-15T03:40:22.378Z,8.72
2019-05-15T03:41:22.367Z,8.74
2019-05-15T03:42:22.316Z,8.78
2019-05-15T03:43:22.274Z,8.89
2019-05-15T03:44:22.245Z,8.81
2019-05-15T03:45:22.273Z,8.83
2019-05-15T03:46:22.173Z,8.80
2019-05-15T03:47:22.153Z,8.80
2019-05-15T03:48:22.106Z,8.71
2019-05-15T03:49:22.174Z,8.78
2019-05-15T03:50:22.072Z,8.72
2019-05-15T03:51:22.012Z,8.74
2019-05-15T03:52:21.978Z,8.57
2019-05-15T03:53:21.941Z,8.57
2019-05-15T03:54:21.975Z,8.70
2019-05-15T03:55:21.867Z,8.68
2019-05-15T03:56:21.837Z,8.74
2019-05-15T03:57:23.125Z,8.72
2019-05-15T03:58:21.963Z,8.71
2019-05-15T03:59:21.734Z,8.67
2019-05-15T04:00:21.713Z,8.70
2019-05-15T04:01:30.179Z,8.74
2019-05-15T04:02:21.639Z,8.65
2019-05-15T04:03:21.607Z,8.59
2019-05-15T04:04:21.611Z,8.60
2019-05-15T04:05:21.547Z,8.70
2019-05-15T04:06:21.511Z,8.71
2019-05-15T04:07:21.476Z,8.78
2019-05-15T04:08:21.508Z,8.83
2019-05-15T04:09:21.416Z,8.77
2019-05-15T04:10:21.377Z,8.90
2019-05-15T04:11:21.343Z,8.72
2019-05-15T04:12:21.334Z,8.75
2019-05-15T04:13:21.374Z,8.71
2019-05-15T04:14:21.240Z,8.63
2019-05-15T04:15:21.219Z,8.62
2019-05-15T04:16:21.173Z,8.71
2019-05-15T04:17:21.241Z,8.78
2019-05-15T04:18:21.104Z,8.71
2019-05-15T04:19:21.072Z,8.75
2019-05-15T04:20:21.050Z,8.60
2019-05-15T04:21:21.009Z,8.77
2019-05-15T04:22:21.087Z,8.75
2019-05-15T04:23:20.940Z,8.65
2019-05-15T04:24:20.928Z,8.77
2019-05-15T04:25:20.872Z,8.75
2019-05-15T04:26:20.836Z,8.70
2019-05-15T04:27:20.820Z,8.72
2019-05-15T04:28:20.833Z,8.67
2019-05-15T04:29:20.822Z,8.67
2019-05-15T04:30:20.710Z,8.60
2019-05-15T04:31:20.673Z,8.60
2019-05-15T04:32:20.642Z,8.71
2019-05-15T04:33:20.735Z,8.75
2019-05-15T04:34:20.598Z,8.81
2019-05-15T04:35:20.541Z,8.77
2019-05-15T04:36:20.518Z,8.85
2019-05-15T04:37:20.510Z,8.85
2019-05-15T04:38:20.434Z,8.95
2019-05-15T04:39:20.397Z,8.90
2019-05-15T04:40:20.370Z,8.99
2019-05-15T04:41:20.371Z,8.86
2019-05-15T04:42:20.566Z,8.80
2019-05-15T04:43:20.283Z,8.92
2019-05-15T04:44:20.230Z,8.93
2019-05-15T04:45:20.220Z,8.95
2019-05-15T04:46:20.245Z,8.93
2019-05-15T04:47:20.139Z,8.98
2019-05-15T04:48:20.304Z,9.03
2019-05-15T04:49:20.135Z,9.08
2019-05-15T04:50:20.112Z,9.04
2019-05-15T04:51:19.996Z,9.01
2019-05-15T04:52:19.966Z,9.08
2019-05-15T04:53:19.930Z,9.01
2019-05-15T04:54:20.286Z,9.16
2019-05-15T04:55:20.021Z,9.16
2019-05-15T04:56:19.834Z,9.23
2019-05-15T04:57:19.843Z,9.16
2019-05-15T04:58:21.055Z,9.22
2019-05-15T04:59:20.007Z,9.16
2019-05-15T05:00:19.926Z,9.23
2019-05-15T05:01:20.239Z,9.23
2019-05-15T05:02:26.514Z,9.24
2019-05-15T05:03:20.423Z,9.27
2019-05-15T05:04:19.579Z,9.27
2019-05-15T05:05:19.533Z,9.27
2019-05-15T05:06:19.584Z,9.30
2019-05-15T05:07:19.474Z,9.30
2019-05-15T05:08:20.453Z,9.23
2019-05-15T05:09:20.022Z,9.18
2019-05-15T05:10:19.727Z,9.24
2019-05-15T05:11:23.571Z,9.32
2019-05-15T05:12:19.544Z,9.27
2019-05-15T05:13:20.202Z,9.37
2019-05-15T05:14:19.235Z,9.34
2019-05-15T05:15:19.203Z,9.34
2019-05-15T05:16:19.383Z,9.32
2019-05-15T05:17:19.679Z,9.48
2019-05-15T05:18:19.453Z,9.52
2019-05-15T05:19:19.721Z,9.44
2019-05-15T05:20:19.039Z,9.55
2019-05-15T05:21:19.066Z,9.47
2019-05-15T05:22:18.987Z,9.67
2019-05-15T05:23:19.512Z,9.73
2019-05-15T05:24:18.967Z,9.73
2019-05-15T05:25:18.920Z,9.77
2019-05-15T05:26:18.841Z,9.72
2019-05-15T05:27:18.917Z,9.75
2019-05-15T05:28:18.796Z,9.70
2019-05-15T05:29:18.744Z,9.84
2019-05-15T05:30:19.082Z,9.78
2019-05-15T05:31:19.238Z,9.81
2019-05-15T05:32:31.342Z,9.85
2019-05-15T05:33:18.662Z,9.88
2019-05-15T05:34:19.408Z,9.88
2019-05-15T05:35:18.615Z,9.96
2019-05-15T05:36:18.706Z,9.88
2019-05-15T05:37:18.578Z,9.94
2019-05-15T05:38:19.270Z,10.08
2019-05-15T05:39:19.967Z,10.16
2019-05-15T05:40:19.029Z,10.14
2019-05-15T05:41:18.975Z,10.16
2019-05-15T05:42:18.587Z,10.28
2019-05-15T05:43:18.511Z,10.35
2019-05-15T05:44:18.931Z,10.35
2019-05-15T05:45:18.230Z,10.31
2019-05-15T05:46:18.550Z,10.39
2019-05-15T05:47:18.342Z,10.39
2019-05-15T05:48:18.689Z,10.43
2019-05-15T05:49:18.489Z,10.41
2019-05-15T05:50:18.310Z,10.42
2019-05-15T05:51:19.025Z,10.49
2019-05-15T05:52:18.570Z,10.52
2019-05-15T05:53:17.950Z,10.61
2019-05-15T05:54:18.341Z,10.57
2019-05-15T05:55:17.923Z,10.52
2019-05-15T05:56:18.229Z,10.61
2019-05-15T05:57:19.375Z,10.60
2019-05-15T05:58:19.563Z,10.67
2019-05-15T05:59:18.592Z,10.70
2019-05-15T06:00:18.176Z,10.57
2019-05-15T06:01:18.741Z,10.67
2019-05-15T06:02:18.609Z,10.75
2019-05-15T06:03:19.735Z,10.73
2019-05-15T06:04:18.558Z,10.75
2019-05-15T06:05:18.994Z,10.80
2019-05-15T06:06:18.581Z,10.79
2019-05-15T06:07:18.522Z,10.83
2019-05-15T06:08:19.472Z,10.86
2019-05-15T06:09:18.269Z,10.94
2019-05-15T06:10:18.283Z,10.93
2019-05-15T06:11:18.425Z,10.83
2019-05-15T06:12:18.931Z,10.91
2019-05-15T06:13:18.529Z,10.93
2019-05-15T06:14:18.329Z,10.87
2019-05-15T06:15:17.969Z,10.91
2019-05-15T06:16:18.970Z,10.91
2019-05-15T06:17:19.054Z,10.97
2019-05-15T06:18:19.729Z,10.91
2019-05-15T06:19:18.263Z,10.94
2019-05-15T06:20:18.572Z,10.94
2019-05-15T06:21:17.991Z,10.97
2019-05-15T06:22:18.791Z,11.19
2019-05-15T06:23:22.953Z,11.55
2019-05-15T06:24:18.022Z,11.48
2019-05-15T06:25:19.795Z,11.61
2019-05-15T06:26:19.363Z,11.66
2019-05-15T06:27:16.860Z,11.59
2019-05-15T06:28:19.701Z,11.70
2019-05-15T06:29:17.905Z,11.70
2019-05-15T06:30:22.245Z,11.79
2019-05-15T06:31:18.806Z,11.71
2019-05-15T06:32:19.234Z,11.79
2019-05-15T06:33:18.746Z,11.88
2019-05-15T06:34:17.861Z,11.85
2019-05-15T06:35:19.284Z,11.88
2019-05-15T06:36:18.000Z,11.85
2019-05-15T06:37:19.450Z,11.71
2019-05-15T06:38:18.953Z,11.71
2019-05-15T06:39:17.915Z,11.93
2019-05-15T06:40:18.329Z,11.87
2019-05-15T06:41:18.184Z,11.87
2019-05-15T06:42:18.612Z,11.85
2019-05-15T06:43:18.821Z,11.85
2019-05-15T06:44:18.573Z,11.85
2019-05-15T06:45:16.259Z,12.03
2019-05-15T06:46:18.535Z,12.07
2019-05-15T06:47:18.021Z,12.03
2019-05-15T06:48:18.118Z,12.11
2019-05-15T06:49:18.021Z,12.29
2019-05-15T06:50:17.959Z,12.21
2019-05-15T06:51:18.113Z,12.35
2019-05-15T06:52:18.130Z,12.41
2019-05-15T06:53:15.997Z,12.32
2019-05-15T06:54:15.968Z,12.33
2019-05-15T06:55:18.196Z,12.38
2019-05-15T06:56:18.565Z,12.32
2019-05-15T06:57:18.224Z,12.32
2019-05-15T06:58:18.662Z,12.33
2019-05-15T06:59:17.905Z,12.30
2019-05-15T07:00:15.769Z,12.32
2019-05-15T07:01:15.742Z,12.35
2019-05-15T07:02:15.724Z,12.33
2019-05-15T07:03:24.019Z,12.28
2019-05-15T07:04:18.019Z,12.32
2019-05-15T07:05:18.247Z,12.48
2019-05-15T07:06:17.952Z,12.51
2019-05-15T07:07:18.055Z,12.53
2019-05-15T07:08:18.016Z,12.61
2019-05-15T07:09:17.807Z,12.66
2019-05-15T07:10:15.454Z,12.73
2019-05-15T07:11:15.422Z,12.88
2019-05-15T07:12:15.389Z,12.81
2019-05-15T07:13:15.365Z,12.88
2019-05-15T07:14:15.328Z,12.79
2019-05-15T07:15:15.293Z,12.84
2019-05-15T07:16:15.262Z,12.79
2019-05-15T07:17:17.414Z,12.84
2019-05-15T07:18:15.205Z,12.73
2019-05-15T07:19:15.165Z,12.83
2019-05-15T07:20:15.138Z,12.83
2019-05-15T07:21:18.244Z,12.80
2019-05-15T07:22:15.074Z,12.80
2019-05-15T07:23:15.047Z,12.79
2019-05-15T07:24:15.010Z,12.81
2019-05-15T07:25:15.031Z,12.83
2019-05-15T07:26:14.953Z,12.90
2019-05-15T07:27:14.909Z,12.88
2019-05-15T07:28:14.885Z,12.95
2019-05-15T07:29:14.847Z,12.98
2019-05-15T07:30:14.826Z,12.99
2019-05-15T07:31:14.789Z,13.05
2019-05-15T07:32:14.815Z,13.05
2019-05-15T07:33:14.725Z,13.13
2019-05-15T07:34:14.694Z,12.96
2019-05-15T07:35:14.671Z,13.02
2019-05-15T07:36:14.705Z,13.04
2019-05-15T07:37:14.591Z,13.05
2019-05-15T07:38:14.586Z,13.14
2019-05-15T07:39:14.534Z,13.09
2019-05-15T07:40:14.501Z,13.06
2019-05-15T07:41:14.475Z,13.01
2019-05-15T07:42:14.474Z,12.98
2019-05-15T07:43:14.407Z,13.08
2019-05-15T07:44:14.375Z,13.13
2019-05-15T07:45:14.346Z,13.08
2019-05-15T07:46:14.400Z,13.09
2019-05-15T07:47:14.279Z,13.20
2019-05-15T07:48:14.334Z,13.29
2019-05-15T07:49:14.218Z,13.39
2019-05-15T07:50:14.200Z,13.42
2019-05-15T07:51:14.159Z,13.42
2019-05-15T07:52:14.208Z,13.47
2019-05-15T07:53:14.094Z,13.51
2019-05-15T07:54:14.069Z,13.60
2019-05-15T07:55:14.033Z,13.54
2019-05-15T07:56:14.005Z,13.53
2019-05-15T07:57:13.962Z,13.55
2019-05-15T07:58:13.962Z,13.57
2019-05-15T07:59:13.895Z,13.64
2019-05-15T08:00:13.991Z,13.58
2019-05-15T08:01:13.908Z,13.55
2019-05-15T08:02:13.889Z,13.55
2019-05-15T08:03:13.824Z,13.63
2019-05-15T08:04:24.762Z,13.65
2019-05-15T08:05:13.713Z,13.73
2019-05-15T08:06:13.677Z,13.76
2019-05-15T08:07:13.720Z,13.85
2019-05-15T08:08:13.618Z,13.78
2019-05-15T08:09:15.233Z,13.82
2019-05-15T08:10:13.573Z,13.85
2019-05-15T08:11:21.937Z,13.88
2019-05-15T08:12:13.538Z,13.76
2019-05-15T08:13:13.552Z,13.83
2019-05-15T08:14:13.466Z,13.85
2019-05-15T08:15:13.398Z,13.79
2019-05-15T08:16:13.368Z,13.94
2019-05-15T08:17:13.355Z,13.94
2019-05-15T08:18:13.345Z,13.97
2019-05-15T08:19:13.271Z,14.00
2019-05-15T08:20:13.241Z,13.97
2019-05-15T08:21:13.236Z,14.00
2019-05-15T08:22:15.136Z,14.00
2019-05-15T08:23:13.154Z,14.08
2019-05-15T08:24:13.123Z,14.11
2019-05-15T08:25:26.678Z,13.97
2019-05-15T08:26:13.100Z,14.08
2019-05-15T08:27:13.023Z,14.09
2019-05-15T08:28:12.997Z,14.11
2019-05-15T08:29:12.960Z,14.19
2019-05-15T08:30:12.949Z,14.26
2019-05-15T08:31:12.904Z,14.28
2019-05-15T08:32:12.907Z,14.30
2019-05-15T08:33:12.839Z,14.30
2019-05-15T08:34:16.317Z,14.38
2019-05-15T08:35:12.914Z,14.48
2019-05-15T08:36:12.783Z,14.45
2019-05-15T08:37:12.760Z,14.48
2019-05-15T08:38:14.340Z,14.46
2019-05-15T08:39:12.701Z,14.51
2019-05-15T08:40:12.617Z,14.61
2019-05-15T08:41:15.516Z,14.58
2019-05-15T08:42:12.569Z,14.67
2019-05-15T08:43:12.529Z,14.64
2019-05-15T08:44:12.496Z,14.71
2019-05-15T08:45:12.509Z,14.74
2019-05-15T08:46:12.460Z,14.63
2019-05-15T08:47:12.419Z,14.69
2019-05-15T08:48:12.369Z,14.71
2019-05-15T08:49:12.343Z,14.55
2019-05-15T08:50:12.370Z,14.56
2019-05-15T08:51:12.380Z,14.59
2019-05-15T08:52:12.343Z,14.67
2019-05-15T08:53:12.263Z,14.66
2019-05-15T08:54:12.196Z,14.83
2019-05-15T08:55:12.163Z,14.87
2019-05-15T08:56:14.800Z,14.96
2019-05-15T08:57:12.168Z,14.95
2019-05-15T08:58:13.991Z,14.90
2019-05-15T08:59:12.034Z,14.93
2019-05-15T09:00:12.037Z,15.03
2019-05-15T09:01:12.040Z,14.95
2019-05-15T09:02:11.946Z,14.99
2019-05-15T09:03:11.912Z,15.04
2019-05-15T09:04:26.213Z,14.95
2019-05-15T09:05:11.897Z,14.89
2019-05-15T09:06:11.844Z,14.89
2019-05-15T09:07:11.813Z,14.95
2019-05-15T09:08:11.839Z,14.97
2019-05-15T09:09:11.732Z,14.96
2019-05-15T09:10:11.691Z,15.01
2019-05-15T09:11:11.709Z,14.99
2019-05-15T09:12:11.683Z,15.05
2019-05-15T09:13:11.610Z,15.10
2019-05-15T09:14:11.577Z,15.12
2019-05-15T09:15:11.546Z,15.29
2019-05-15T09:16:11.593Z,15.47
2019-05-15T09:17:11.537Z,15.32
2019-05-15T09:18:15.805Z,15.38
2019-05-15T09:19:11.419Z,15.33
2019-05-15T09:20:11.398Z,15.30
2019-05-15T09:21:11.424Z,15.32
2019-05-15T09:22:11.332Z,15.35
2019-05-15T09:23:11.295Z,15.40
2019-05-15T09:24:11.267Z,15.32
2019-05-15T09:25:11.242Z,15.27
2019-05-15T09:26:11.211Z,15.26
2019-05-15T09:27:11.189Z,15.29
2019-05-15T09:28:11.202Z,15.26
2019-05-15T09:29:11.199Z,15.36
2019-05-15T09:30:11.158Z,15.44
2019-05-15T09:31:11.112Z,15.47
2019-05-15T09:32:12.571Z,15.45
2019-05-15T09:33:10.998Z,15.69
2019-05-15T09:34:10.997Z,15.72
2019-05-15T09:35:10.947Z,15.68
2019-05-15T09:36:10.951Z,15.80
2019-05-15T09:37:10.880Z,15.77
2019-05-15T09:38:10.851Z,15.80
2019-05-15T09:39:13.385Z,15.72
2019-05-15T09:40:10.785Z,15.58
2019-05-15T09:41:10.764Z,15.60
2019-05-15T09:42:10.741Z,15.68
2019-05-15T09:43:11.478Z,15.70
2019-05-15T09:44:10.663Z,15.66
2019-05-15T09:45:10.630Z,15.70
2019-05-15T09:46:10.642Z,15.85
2019-05-15T09:47:10.575Z,15.85
2019-05-15T09:48:14.476Z,15.91
2019-05-15T09:49:10.529Z,15.90
2019-05-15T09:50:10.512Z,15.85
2019-05-15T09:51:10.471Z,15.83
2019-05-15T09:52:10.466Z,15.78
2019-05-15T09:53:10.418Z,15.84
2019-05-15T09:54:10.392Z,15.90
2019-05-15T09:55:10.353Z,15.91
2019-05-15T09:56:10.341Z,15.93
2019-05-15T09:57:11.037Z,15.99
2019-05-15T09:58:10.282Z,16.02
2019-05-15T09:59:10.258Z,15.98
2019-05-15T10:00:10.212Z,16.06
2019-05-15T10:01:10.180Z,16.08
2019-05-15T10:02:10.166Z,16.14
2019-05-15T10:03:10.132Z,16.26
2019-05-15T10:04:10.129Z,16.28
2019-05-15T10:05:11.341Z,16.28
2019-05-15T10:06:10.007Z,16.40
2019-05-15T10:07:09.973Z,16.34
2019-05-15T10:08:09.987Z,16.42
2019-05-15T10:09:09.952Z,16.57
2019-05-15T10:10:09.954Z,16.44
2019-05-15T10:11:09.899Z,16.64
2019-05-15T10:12:09.818Z,16.62
2019-05-15T10:13:09.840Z,16.76
2019-05-15T10:14:10.053Z,16.74
2019-05-15T10:15:11.647Z,16.77
2019-05-15T10:16:09.715Z,16.88
2019-05-15T10:17:09.715Z,16.82
2019-05-15T10:18:10.023Z,16.84
2019-05-15T10:19:09.647Z,16.87
2019-05-15T10:20:09.624Z,16.84
2019-05-15T10:21:09.567Z,16.90
2019-05-15T10:22:09.863Z,16.92
2019-05-15T10:23:09.532Z,16.83
2019-05-15T10:24:09.678Z,16.72
2019-05-15T10:25:09.499Z,16.70
2019-05-15T10:26:13.822Z,16.70
2019-05-15T10:27:09.400Z,16.76
2019-05-15T10:28:09.947Z,16.79
2019-05-15T10:29:09.425Z,16.83
2019-05-15T10:30:09.390Z,16.82
2019-05-15T10:31:09.584Z,16.72
2019-05-15T10:32:09.240Z,16.74
2019-05-15T10:33:09.228Z,16.95
2019-05-15T10:34:09.358Z,16.94
2019-05-15T10:35:23.706Z,17.02
2019-05-15T10:36:09.129Z,17.07
2019-05-15T10:37:09.153Z,17.09
2019-05-15T10:38:09.095Z,17.10
2019-05-15T10:39:09.218Z,17.12
2019-05-15T10:40:09.249Z,17.04
2019-05-15T10:41:14.801Z,17.06
2019-05-15T10:42:08.989Z,17.14
2019-05-15T10:43:09.377Z,17.14
2019-05-15T10:44:09.397Z,17.17
2019-05-15T10:45:08.900Z,17.22
2019-05-15T10:46:13.108Z,17.24
2019-05-15T10:47:08.952Z,17.30
2019-05-15T10:48:09.553Z,17.32
2019-05-15T10:49:08.923Z,17.34
2019-05-15T10:50:08.704Z,17.32
2019-05-15T10:51:10.140Z,17.37
2019-05-15T10:52:11.106Z,17.47
2019-05-15T10:53:11.203Z,17.46
2019-05-15T10:54:08.722Z,17.47
2019-05-15T10:55:09.499Z,17.68
2019-05-15T10:56:09.093Z,17.71
2019-05-15T10:57:08.774Z,17.76
2019-05-15T10:58:16.680Z,17.75
2019-05-15T10:59:08.667Z,17.71
2019-05-15T11:00:08.402Z,17.83
2019-05-15T11:01:11.213Z,18.02
2019-05-15T11:02:08.674Z,18.06
2019-05-15T11:03:08.914Z,18.13
2019-05-15T11:04:09.136Z,18.17
2019-05-15T11:05:09.336Z,18.17
2019-05-15T11:06:09.062Z,18.28
2019-05-15T11:07:09.841Z,18.38
2019-05-15T11:08:08.447Z,18.31
2019-05-15T11:09:08.632Z,18.39
2019-05-15T11:10:08.743Z,18.52
2019-05-15T11:11:09.188Z,18.52
2019-05-15T11:12:08.743Z,18.34
2019-05-15T11:13:08.961Z,18.26
2019-05-15T11:14:09.050Z,18.28
2019-05-15T11:15:11.018Z,18.36
2019-05-15T11:16:07.953Z,18.48
2019-05-15T11:17:07.911Z,18.48
2019-05-15T11:18:09.299Z,18.54
2019-05-15T11:19:08.086Z,18.67
2019-05-15T11:20:08.513Z,18.75
2019-05-15T11:21:08.371Z,18.71
2019-05-15T11:22:09.039Z,18.75
2019-05-15T11:23:08.149Z,18.70
2019-05-15T11:24:08.749Z,18.76
2019-05-15T11:25:09.957Z,18.91
2019-05-15T11:26:08.781Z,19.31
2019-05-15T11:27:09.931Z,19.96
2019-05-15T11:28:08.226Z,20.52
2019-05-15T11:29:09.690Z,21.11
2019-05-15T11:30:07.792Z,21.18
2019-05-15T11:31:10.459Z,21.82
2019-05-15T11:32:08.879Z,22.11
2019-05-15T11:33:09.565Z,22.21
2019-05-15T11:34:10.310Z,22.12
2019-05-15T11:35:07.482Z,21.91
2019-05-15T11:36:07.388Z,21.48
2019-05-15T11:37:07.381Z,21.20
2019-05-15T11:38:10.164Z,20.98
2019-05-15T11:39:08.421Z,20.86
2019-05-15T11:40:10.282Z,20.58
2019-05-15T11:41:08.675Z,20.73
2019-05-15T11:42:09.021Z,20.64
2019-05-15T11:43:08.511Z,20.61
2019-05-15T11:44:07.241Z,20.67
2019-05-15T11:45:07.209Z,20.63
2019-05-15T11:46:09.689Z,20.30
2019-05-15T11:47:07.079Z,20.15
2019-05-15T11:48:08.952Z,20.11
2019-05-15T11:49:09.423Z,19.97
2019-05-15T11:50:08.488Z,20.02
2019-05-15T11:51:09.445Z,20.29
2019-05-15T11:52:08.856Z,20.39
2019-05-15T11:53:08.718Z,20.58
2019-05-15T11:54:08.219Z,20.77
2019-05-15T11:55:08.414Z,20.97
2019-05-15T11:56:09.300Z,21.10
2019-05-15T11:57:08.632Z,20.83
2019-05-15T11:58:09.057Z,20.80
2019-05-15T11:59:08.507Z,20.71
2019-05-15T12:00:14.915Z,20.73
2019-05-15T12:01:08.666Z,20.67
2019-05-15T12:02:08.554Z,20.64
2019-05-15T12:03:08.916Z,20.25
2019-05-15T12:04:09.145Z,20.50
2019-05-15T12:05:08.950Z,20.65
2019-05-15T12:06:15.988Z,20.48
2019-05-15T12:07:08.676Z,20.22
2019-05-15T12:08:08.642Z,20.11
2019-05-15T12:09:08.936Z,20.17
2019-05-15T12:10:09.893Z,20.29
2019-05-15T12:11:09.926Z,20.29
2019-05-15T12:12:08.699Z,20.48
2019-05-15T12:13:06.396Z,20.56
2019-05-15T12:14:08.369Z,20.95
2019-05-15T12:15:06.366Z,21.13
2019-05-15T12:16:06.322Z,21.35
2019-05-15T12:17:12.492Z,21.47
2019-05-15T12:18:08.820Z,21.47
2019-05-15T12:19:13.567Z,21.03
2019-05-15T12:20:07.191Z,21.07
2019-05-15T12:21:06.211Z,21.13
2019-05-15T12:22:06.167Z,21.29
2019-05-15T12:23:08.693Z,21.34
2019-05-15T12:24:08.519Z,21.28
2019-05-15T12:25:09.782Z,21.18
2019-05-15T12:26:08.821Z,21.20
2019-05-15T12:27:15.326Z,21.48
2019-05-15T12:28:09.111Z,21.81
2019-05-15T12:29:05.975Z,21.71
2019-05-15T12:30:09.790Z,21.73
2019-05-15T12:31:05.924Z,21.90
2019-05-15T12:32:25.385Z,21.71
2019-05-15T12:33:05.871Z,21.66
2019-05-15T12:34:05.849Z,22.01
2019-05-15T12:35:05.829Z,22.34
2019-05-15T12:36:05.796Z,22.71
2019-05-15T12:37:09.476Z,22.33
2019-05-15T12:38:05.748Z,22.12
2019-05-15T12:39:10.597Z,22.30
2019-05-15T13:00:07.407Z,22.41
2019-05-15T13:01:14.602Z,22.83
2019-05-15T13:02:05.173Z,22.76
2019-05-15T13:03:05.126Z,22.98
2019-05-15T13:04:05.125Z,23.10
2019-05-15T13:05:05.082Z,23.48
2019-05-15T13:06:05.110Z,23.45
2019-05-15T13:07:13.789Z,23.39
2019-05-15T13:08:05.016Z,23.56
2019-05-15T13:09:04.989Z,24.13
2019-05-15T13:10:04.957Z,24.68
2019-05-15T13:11:09.510Z,25.04
2019-05-15T13:12:04.936Z,24.99
2019-05-15T13:13:05.647Z,25.56
2019-05-15T13:14:04.876Z,25.68
2019-05-15T13:15:04.849Z,26.31
2019-05-15T13:16:04.829Z,26.67
2019-05-15T13:17:04.804Z,26.08
2019-05-15T13:18:04.797Z,25.89
2019-05-15T13:19:04.760Z,25.53
2019-05-15T13:20:04.739Z,25.82